CSHVD LPFR-LPPT
Flight info
| Callsign | CSHVD |
|---|---|
| Flight time | 1h 14m |
| Altitude | 3500 |
| Route | LOULA DCT BMROC DCT LPSI DCT BRCAR TNW BUGIO DCT ENACI TR RALIS |
| Aircraft | EC35/L-VGD/C |
Departure
| Time | 2026-05-04 17:24 |
|---|---|
| Airport | Faro - Gago Coutinho International Airport (LPFR) |
Arrival
| Time | 2026-05-04 18:39 |
|---|---|
| Airport | Lisbon Humberto Delgado Airport (LPPT) |
| Time | Latitude | Longitude | Altitude | Speed | Heading |
|---|---|---|---|---|---|
| 2026-05-04 16:58 | 37.01738 | -7.96976 | 19 ft | 0 kts | 190° |
| 2026-05-04 17:14 | 37.01741 | -7.96976 | 20 ft | 0 kts | 187° |
| 2026-05-04 17:14 | 37.01751 | -7.96974 | 30 ft | 2 kts | 190° |
| 2026-05-04 17:14 | 37.01762 | -7.96956 | 30 ft | 4 kts | 355° |
| 2026-05-04 17:15 | 37.01792 | -7.96939 | 27 ft | 5 kts | 98° |
| 2026-05-04 17:15 | 37.01726 | -7.96906 | 32 ft | 7 kts | 195° |
| 2026-05-04 17:16 | 37.01650 | -7.96753 | 34 ft | 10 kts | 107° |
| 2026-05-04 17:16 | 37.01619 | -7.96564 | 33 ft | 3 kts | 159° |
| 2026-05-04 17:17 | 37.01602 | -7.96556 | 29 ft | 1 kts | 195° |
| 2026-05-04 17:17 | 37.01542 | -7.96569 | 18 ft | 1 kts | 195° |
| 2026-05-04 17:18 | 37.01542 | -7.96570 | 18 ft | 0 kts | 196° |
| 2026-05-04 17:21 | 37.01543 | -7.96570 | 23 ft | 1 kts | 196° |
| 2026-05-04 17:21 | 37.01490 | -7.96582 | 33 ft | 5 kts | 194° |
| 2026-05-04 17:22 | 37.01453 | -7.96595 | 37 ft | 4 kts | 238° |
| 2026-05-04 17:22 | 37.01446 | -7.96599 | 30 ft | 0 kts | 275° |
| 2026-05-04 17:23 | 37.01448 | -7.96607 | 36 ft | 2 kts | 280° |
| 2026-05-04 17:23 | 37.01469 | -7.96747 | 76 ft | 42 kts | 269° |
| 2026-05-04 17:23 | 37.01616 | -7.97771 | 390 ft | 64 kts | 274° |
| 2026-05-04 17:24 | 37.01656 | -7.98308 | 606 ft | 64 kts | 269° |
| 2026-05-04 17:24 | 37.02472 | -7.99439 | 1200 ft | 85 kts | 355° |
| 2026-05-04 17:25 | 37.03057 | -7.99425 | 1431 ft | 84 kts | 347° |
| 2026-05-04 17:25 | 37.04292 | -7.99553 | 1719 ft | 93 kts | 348° |
| 2026-05-04 17:26 | 37.05593 | -7.99851 | 1911 ft | 97 kts | 335° |
| 2026-05-04 17:26 | 37.07661 | -8.00484 | 2016 ft | 101 kts | 337° |
| 2026-05-04 17:27 | 37.08955 | -8.00958 | 2140 ft | 92 kts | 338° |
| 2026-05-04 17:27 | 37.10202 | -8.01343 | 2461 ft | 95 kts | 342° |
| 2026-05-04 17:28 | 37.11515 | -8.01665 | 2752 ft | 98 kts | 343° |
| 2026-05-04 17:29 | 37.13624 | -8.02224 | 2999 ft | 110 kts | 343° |
| 2026-05-04 17:29 | 37.15597 | -8.03706 | 2993 ft | 111 kts | 322° |
| 2026-05-04 17:30 | 37.17469 | -8.05401 | 3003 ft | 110 kts | 323° |
| 2026-05-04 17:31 | 37.18747 | -8.06544 | 3005 ft | 115 kts | 323° |
| 2026-05-04 17:31 | 37.20718 | -8.08318 | 3005 ft | 116 kts | 323° |
| 2026-05-04 17:32 | 37.22044 | -8.09519 | 2996 ft | 117 kts | 323° |
| 2026-05-04 17:33 | 37.24014 | -8.11304 | 2998 ft | 117 kts | 323° |
| 2026-05-04 17:33 | 37.24676 | -8.11905 | 2997 ft | 116 kts | 323° |
| 2026-05-04 17:34 | 37.26643 | -8.13688 | 2991 ft | 115 kts | 323° |
| 2026-05-04 17:34 | 37.27294 | -8.14277 | 2983 ft | 115 kts | 323° |
| 2026-05-04 17:35 | 37.29246 | -8.16047 | 2996 ft | 116 kts | 323° |
| 2026-05-04 17:35 | 37.30562 | -8.17242 | 3001 ft | 118 kts | 323° |
| 2026-05-04 17:35 | 37.31218 | -8.17840 | 3014 ft | 117 kts | 322° |
| 2026-05-04 17:36 | 37.31884 | -8.18447 | 2999 ft | 117 kts | 322° |
| 2026-05-04 17:36 | 37.32547 | -8.19050 | 2988 ft | 116 kts | 322° |
| 2026-05-04 17:36 | 37.33197 | -8.19640 | 2976 ft | 115 kts | 323° |
| 2026-05-04 17:36 | 37.33848 | -8.20229 | 2987 ft | 115 kts | 323° |
| 2026-05-04 17:37 | 37.34505 | -8.20825 | 2984 ft | 115 kts | 323° |
| 2026-05-04 17:37 | 37.35154 | -8.21415 | 3004 ft | 116 kts | 323° |
| 2026-05-04 17:37 | 37.35814 | -8.22016 | 3003 ft | 117 kts | 323° |
| 2026-05-04 17:37 | 37.36471 | -8.22614 | 3007 ft | 117 kts | 323° |
| 2026-05-04 17:38 | 37.37136 | -8.23220 | 3006 ft | 117 kts | 323° |
| 2026-05-04 17:38 | 37.37793 | -8.23818 | 3002 ft | 117 kts | 322° |
| 2026-05-04 17:38 | 37.38452 | -8.24418 | 3005 ft | 117 kts | 323° |
| 2026-05-04 17:38 | 37.39116 | -8.25023 | 2997 ft | 116 kts | 322° |
| 2026-05-04 17:39 | 37.40424 | -8.26214 | 3009 ft | 115 kts | 322° |
| 2026-05-04 17:39 | 37.41075 | -8.26806 | 3011 ft | 116 kts | 323° |
| 2026-05-04 17:39 | 37.41730 | -8.27403 | 3012 ft | 116 kts | 323° |
| 2026-05-04 17:40 | 37.42387 | -8.28002 | 3011 ft | 116 kts | 323° |
| 2026-05-04 17:40 | 37.43052 | -8.28607 | 3013 ft | 117 kts | 323° |
| 2026-05-04 17:40 | 37.43707 | -8.29204 | 3017 ft | 118 kts | 323° |
| 2026-05-04 17:40 | 37.44369 | -8.29807 | 3018 ft | 118 kts | 323° |
| 2026-05-04 17:41 | 37.45037 | -8.30408 | 3008 ft | 118 kts | 323° |
| 2026-05-04 17:41 | 37.45705 | -8.31011 | 3016 ft | 117 kts | 323° |
| 2026-05-04 17:41 | 37.46365 | -8.31608 | 3014 ft | 117 kts | 323° |
| 2026-05-04 17:41 | 37.47027 | -8.32208 | 3011 ft | 117 kts | 323° |
| 2026-05-04 17:42 | 37.47691 | -8.32812 | 3017 ft | 117 kts | 323° |
| 2026-05-04 17:42 | 37.48349 | -8.33413 | 3016 ft | 116 kts | 323° |
| 2026-05-04 17:42 | 37.49007 | -8.34013 | 3020 ft | 116 kts | 323° |
| 2026-05-04 17:42 | 37.49658 | -8.34609 | 3026 ft | 116 kts | 323° |
| 2026-05-04 17:43 | 37.50312 | -8.35206 | 3022 ft | 117 kts | 323° |
| 2026-05-04 17:43 | 37.50977 | -8.35814 | 3014 ft | 116 kts | 322° |
| 2026-05-04 17:43 | 37.51629 | -8.36409 | 3016 ft | 116 kts | 323° |
| 2026-05-04 17:43 | 37.52294 | -8.37016 | 3021 ft | 117 kts | 323° |
| 2026-05-04 17:44 | 37.52954 | -8.37619 | 3016 ft | 118 kts | 322° |
| 2026-05-04 17:44 | 37.53617 | -8.38226 | 3019 ft | 118 kts | 323° |
| 2026-05-04 17:44 | 37.54290 | -8.38841 | 3021 ft | 118 kts | 323° |
| 2026-05-04 17:44 | 37.54956 | -8.39452 | 3013 ft | 118 kts | 323° |
| 2026-05-04 17:45 | 37.55620 | -8.40060 | 3009 ft | 117 kts | 323° |
| 2026-05-04 17:45 | 37.56283 | -8.40667 | 3014 ft | 117 kts | 323° |
| 2026-05-04 17:45 | 37.56938 | -8.41268 | 3012 ft | 116 kts | 323° |
| 2026-05-04 17:45 | 37.57594 | -8.41869 | 3009 ft | 116 kts | 323° |
| 2026-05-04 17:46 | 37.58257 | -8.42477 | 3014 ft | 116 kts | 323° |
| 2026-05-04 17:46 | 37.58910 | -8.43075 | 3017 ft | 117 kts | 323° |
| 2026-05-04 17:46 | 37.59575 | -8.43686 | 3011 ft | 117 kts | 323° |
| 2026-05-04 17:46 | 37.60240 | -8.44295 | 3014 ft | 117 kts | 322° |
| 2026-05-04 17:47 | 37.60900 | -8.44900 | 3021 ft | 118 kts | 323° |
| 2026-05-04 17:47 | 37.61564 | -8.45509 | 3019 ft | 118 kts | 323° |
| 2026-05-04 17:47 | 37.62231 | -8.46122 | 3016 ft | 118 kts | 323° |
| 2026-05-04 17:47 | 37.62896 | -8.46732 | 3013 ft | 117 kts | 323° |
| 2026-05-04 17:48 | 37.63555 | -8.47338 | 3010 ft | 117 kts | 323° |
| 2026-05-04 17:48 | 37.64209 | -8.47938 | 3018 ft | 116 kts | 323° |
| 2026-05-04 17:48 | 37.64869 | -8.48544 | 3027 ft | 117 kts | 323° |
| 2026-05-04 17:48 | 37.65531 | -8.49152 | 3026 ft | 118 kts | 324° |
| 2026-05-04 17:49 | 37.66195 | -8.49762 | 3022 ft | 118 kts | 323° |
| 2026-05-04 17:49 | 37.66864 | -8.50377 | 3025 ft | 118 kts | 323° |
| 2026-05-04 17:49 | 37.67530 | -8.50990 | 3024 ft | 118 kts | 323° |
| 2026-05-04 17:49 | 37.68196 | -8.51600 | 3029 ft | 119 kts | 323° |
| 2026-05-04 17:50 | 37.68866 | -8.52218 | 3021 ft | 119 kts | 323° |
| 2026-05-04 17:50 | 37.69532 | -8.52831 | 3017 ft | 118 kts | 322° |
| 2026-05-04 17:50 | 37.70198 | -8.53444 | 3019 ft | 118 kts | 323° |
| 2026-05-04 17:50 | 37.70869 | -8.54063 | 3023 ft | 117 kts | 323° |
| 2026-05-04 17:51 | 37.71527 | -8.54669 | 3021 ft | 117 kts | 323° |
| 2026-05-04 17:51 | 37.72187 | -8.55277 | 3021 ft | 117 kts | 323° |
| 2026-05-04 17:51 | 37.72843 | -8.55879 | 3024 ft | 117 kts | 323° |
| 2026-05-04 17:51 | 37.73507 | -8.56491 | 3022 ft | 117 kts | 323° |
| 2026-05-04 17:52 | 37.74168 | -8.57099 | 3023 ft | 117 kts | 323° |
| 2026-05-04 17:52 | 37.74826 | -8.57706 | 3023 ft | 118 kts | 323° |
| 2026-05-04 17:52 | 37.75493 | -8.58320 | 3022 ft | 119 kts | 323° |
| 2026-05-04 17:52 | 37.76163 | -8.58937 | 3021 ft | 119 kts | 323° |
| 2026-05-04 17:53 | 37.76835 | -8.59557 | 3023 ft | 119 kts | 323° |
| 2026-05-04 17:53 | 37.77508 | -8.60179 | 3025 ft | 119 kts | 323° |
| 2026-05-04 17:53 | 37.78175 | -8.60796 | 3027 ft | 119 kts | 323° |
| 2026-05-04 17:53 | 37.78844 | -8.61412 | 3026 ft | 119 kts | 323° |
| 2026-05-04 17:54 | 37.79511 | -8.62029 | 3026 ft | 119 kts | 323° |
| 2026-05-04 17:54 | 37.80184 | -8.62650 | 3026 ft | 118 kts | 323° |
| 2026-05-04 17:54 | 37.80847 | -8.63264 | 3028 ft | 118 kts | 323° |
| 2026-05-04 17:54 | 37.81509 | -8.63876 | 3026 ft | 118 kts | 323° |
| 2026-05-04 17:55 | 37.82167 | -8.64484 | 3023 ft | 117 kts | 323° |
| 2026-05-04 17:55 | 37.82828 | -8.65094 | 3024 ft | 118 kts | 322° |
| 2026-05-04 17:55 | 37.83502 | -8.65716 | 3024 ft | 119 kts | 322° |
| 2026-05-04 17:55 | 37.84173 | -8.66336 | 3025 ft | 119 kts | 322° |
| 2026-05-04 17:56 | 37.84846 | -8.66958 | 3026 ft | 119 kts | 322° |
| 2026-05-04 17:56 | 37.85516 | -8.67578 | 3026 ft | 119 kts | 323° |
| 2026-05-04 17:56 | 37.86189 | -8.68200 | 3028 ft | 120 kts | 323° |
| 2026-05-04 17:56 | 37.86860 | -8.68823 | 3030 ft | 119 kts | 323° |
| 2026-05-04 17:57 | 37.87532 | -8.69445 | 3033 ft | 119 kts | 323° |
| 2026-05-04 17:57 | 37.88195 | -8.70059 | 3032 ft | 119 kts | 323° |
| 2026-05-04 17:57 | 37.88863 | -8.70679 | 3036 ft | 118 kts | 323° |
| 2026-05-04 17:57 | 37.89536 | -8.71302 | 3033 ft | 119 kts | 323° |
| 2026-05-04 17:58 | 37.90199 | -8.71917 | 3033 ft | 118 kts | 323° |
| 2026-05-04 17:58 | 37.90863 | -8.72533 | 3031 ft | 118 kts | 322° |
| 2026-05-04 17:58 | 37.91528 | -8.73149 | 3032 ft | 118 kts | 322° |
| 2026-05-04 17:58 | 37.92189 | -8.73761 | 3034 ft | 118 kts | 323° |
| 2026-05-04 17:59 | 37.92855 | -8.74378 | 3035 ft | 118 kts | 322° |
| 2026-05-04 17:59 | 37.93527 | -8.75001 | 3035 ft | 118 kts | 323° |
| 2026-05-04 17:59 | 37.94863 | -8.76240 | 3036 ft | 120 kts | 323° |
| 2026-05-04 18:00 | 37.95542 | -8.76870 | 3032 ft | 120 kts | 323° |
| 2026-05-04 18:00 | 37.96210 | -8.77491 | 3033 ft | 120 kts | 323° |
| 2026-05-04 18:00 | 37.96887 | -8.78120 | 3032 ft | 119 kts | 323° |
| 2026-05-04 18:00 | 37.97561 | -8.78747 | 3031 ft | 119 kts | 323° |
| 2026-05-04 18:01 | 37.98224 | -8.79364 | 3033 ft | 118 kts | 323° |
| 2026-05-04 18:01 | 37.98890 | -8.79982 | 3034 ft | 119 kts | 323° |
| 2026-05-04 18:01 | 37.99558 | -8.80603 | 3038 ft | 118 kts | 323° |
| 2026-05-04 18:02 | 38.00896 | -8.81846 | 3038 ft | 119 kts | 323° |
| 2026-05-04 18:02 | 38.01567 | -8.82470 | 3034 ft | 120 kts | 323° |
| 2026-05-04 18:02 | 38.02297 | -8.82966 | 2999 ft | 122 kts | 345° |
| 2026-05-04 18:02 | 38.03136 | -8.83037 | 3034 ft | 120 kts | 355° |
| 2026-05-04 18:03 | 38.03978 | -8.83000 | 3037 ft | 121 kts | 358° |
| 2026-05-04 18:03 | 38.04814 | -8.82951 | 3037 ft | 121 kts | 357° |
| 2026-05-04 18:03 | 38.05666 | -8.82911 | 3038 ft | 121 kts | 357° |
| 2026-05-04 18:03 | 38.06505 | -8.82879 | 3038 ft | 121 kts | 356° |
| 2026-05-04 18:04 | 38.07350 | -8.82854 | 3039 ft | 121 kts | 356° |
| 2026-05-04 18:04 | 38.08190 | -8.82832 | 3038 ft | 121 kts | 356° |
| 2026-05-04 18:04 | 38.09880 | -8.82797 | 3038 ft | 121 kts | 356° |
| 2026-05-04 18:05 | 38.10725 | -8.82782 | 3039 ft | 121 kts | 356° |
| 2026-05-04 18:05 | 38.11563 | -8.82768 | 3035 ft | 121 kts | 355° |
| 2026-05-04 18:05 | 38.12413 | -8.82755 | 3036 ft | 121 kts | 355° |
| 2026-05-04 18:05 | 38.13275 | -8.82744 | 2935 ft | 126 kts | 355° |
| 2026-05-04 18:06 | 38.15030 | -8.82748 | 2664 ft | 124 kts | 353° |
| 2026-05-04 18:06 | 38.15888 | -8.82750 | 2545 ft | 123 kts | 353° |
| 2026-05-04 18:06 | 38.16753 | -8.82747 | 2405 ft | 123 kts | 353° |
| 2026-05-04 18:07 | 38.17610 | -8.82742 | 2260 ft | 123 kts | 353° |
| 2026-05-04 18:07 | 38.18461 | -8.82734 | 2113 ft | 123 kts | 354° |
| 2026-05-04 18:07 | 38.19310 | -8.82723 | 2033 ft | 119 kts | 354° |
| 2026-05-04 18:07 | 38.20138 | -8.82704 | 1984 ft | 117 kts | 354° |
| 2026-05-04 18:08 | 38.20944 | -8.82684 | 1978 ft | 114 kts | 354° |
| 2026-05-04 18:08 | 38.21730 | -8.82663 | 1979 ft | 113 kts | 354° |
| 2026-05-04 18:08 | 38.22512 | -8.82645 | 1981 ft | 112 kts | 354° |
| 2026-05-04 18:08 | 38.23305 | -8.82628 | 1974 ft | 112 kts | 353° |
| 2026-05-04 18:09 | 38.24871 | -8.82596 | 1973 ft | 113 kts | 354° |
| 2026-05-04 18:09 | 38.26452 | -8.82566 | 1986 ft | 115 kts | 355° |
| 2026-05-04 18:10 | 38.27269 | -8.82547 | 1974 ft | 117 kts | 355° |
| 2026-05-04 18:10 | 38.28090 | -8.82531 | 1976 ft | 117 kts | 355° |
| 2026-05-04 18:10 | 38.28907 | -8.82517 | 1977 ft | 117 kts | 354° |
| 2026-05-04 18:10 | 38.29722 | -8.82503 | 1973 ft | 116 kts | 354° |
| 2026-05-04 18:11 | 38.30532 | -8.82490 | 1976 ft | 116 kts | 354° |
| 2026-05-04 18:11 | 38.31336 | -8.82477 | 1973 ft | 116 kts | 354° |
| 2026-05-04 18:11 | 38.32148 | -8.82466 | 1975 ft | 116 kts | 353° |
| 2026-05-04 18:11 | 38.32948 | -8.82460 | 1974 ft | 115 kts | 353° |
| 2026-05-04 18:12 | 38.33752 | -8.82452 | 1970 ft | 116 kts | 354° |
| 2026-05-04 18:12 | 38.34568 | -8.82441 | 1971 ft | 116 kts | 354° |
| 2026-05-04 18:12 | 38.35379 | -8.82430 | 1972 ft | 116 kts | 354° |
| 2026-05-04 18:12 | 38.36194 | -8.82418 | 1974 ft | 117 kts | 354° |
| 2026-05-04 18:13 | 38.37004 | -8.82407 | 1977 ft | 116 kts | 354° |
| 2026-05-04 18:13 | 38.37816 | -8.82395 | 1981 ft | 116 kts | 355° |
| 2026-05-04 18:13 | 38.39439 | -8.82370 | 1986 ft | 116 kts | 355° |
| 2026-05-04 18:14 | 38.40254 | -8.82358 | 1988 ft | 116 kts | 355° |
| 2026-05-04 18:14 | 38.41062 | -8.82346 | 1989 ft | 116 kts | 355° |
| 2026-05-04 18:14 | 38.41860 | -8.82411 | 1984 ft | 114 kts | 341° |
| 2026-05-04 18:15 | 38.43275 | -8.83302 | 1983 ft | 113 kts | 328° |
| 2026-05-04 18:15 | 38.44653 | -8.84300 | 1982 ft | 114 kts | 327° |
| 2026-05-04 18:15 | 38.45346 | -8.84799 | 1983 ft | 114 kts | 327° |
| 2026-05-04 18:16 | 38.46039 | -8.85295 | 1981 ft | 114 kts | 328° |
| 2026-05-04 18:16 | 38.46734 | -8.85791 | 1983 ft | 115 kts | 328° |
| 2026-05-04 18:16 | 38.47434 | -8.86290 | 1980 ft | 115 kts | 328° |
| 2026-05-04 18:17 | 38.48823 | -8.87281 | 1988 ft | 115 kts | 329° |
| 2026-05-04 18:17 | 38.49526 | -8.87782 | 1986 ft | 114 kts | 329° |
| 2026-05-04 18:17 | 38.50903 | -8.88774 | 1988 ft | 114 kts | 326° |
| 2026-05-04 18:18 | 38.51419 | -8.89558 | 1998 ft | 118 kts | 297° |
| 2026-05-04 18:18 | 38.51535 | -8.90618 | 1999 ft | 122 kts | 276° |
| 2026-05-04 18:18 | 38.51548 | -8.91691 | 1985 ft | 122 kts | 273° |
| 2026-05-04 18:18 | 38.51539 | -8.92777 | 2008 ft | 122 kts | 273° |
| 2026-05-04 18:19 | 38.51483 | -8.94899 | 1979 ft | 116 kts | 273° |
| 2026-05-04 18:19 | 38.51467 | -8.95915 | 1988 ft | 115 kts | 273° |
| 2026-05-04 18:19 | 38.51455 | -8.96938 | 1983 ft | 114 kts | 273° |
| 2026-05-04 18:20 | 38.51445 | -8.97957 | 1976 ft | 114 kts | 273° |
| 2026-05-04 18:20 | 38.51437 | -8.98975 | 1974 ft | 113 kts | 274° |
| 2026-05-04 18:20 | 38.51430 | -8.99985 | 1978 ft | 113 kts | 275° |
| 2026-05-04 18:20 | 38.51423 | -9.00989 | 2000 ft | 116 kts | 275° |
| 2026-05-04 18:21 | 38.51418 | -9.02038 | 1996 ft | 118 kts | 274° |
| 2026-05-04 18:21 | 38.51410 | -9.03088 | 2000 ft | 119 kts | 274° |
| 2026-05-04 18:21 | 38.51401 | -9.04151 | 2003 ft | 119 kts | 273° |
| 2026-05-04 18:21 | 38.51392 | -9.05212 | 2004 ft | 119 kts | 274° |
| 2026-05-04 18:22 | 38.51384 | -9.06256 | 2004 ft | 118 kts | 273° |
| 2026-05-04 18:22 | 38.51375 | -9.07313 | 2002 ft | 118 kts | 273° |
| 2026-05-04 18:22 | 38.51366 | -9.08365 | 2005 ft | 118 kts | 274° |
| 2026-05-04 18:22 | 38.51358 | -9.09416 | 2003 ft | 119 kts | 274° |
| 2026-05-04 18:23 | 38.51349 | -9.10473 | 2002 ft | 118 kts | 274° |
| 2026-05-04 18:23 | 38.51339 | -9.11514 | 2003 ft | 118 kts | 274° |
| 2026-05-04 18:23 | 38.51330 | -9.12569 | 2001 ft | 118 kts | 275° |
| 2026-05-04 18:23 | 38.51321 | -9.13622 | 1999 ft | 118 kts | 274° |
| 2026-05-04 18:24 | 38.51312 | -9.14665 | 1999 ft | 118 kts | 274° |
| 2026-05-04 18:24 | 38.51303 | -9.15721 | 1999 ft | 119 kts | 274° |
| 2026-05-04 18:24 | 38.51380 | -9.16766 | 1973 ft | 117 kts | 291° |
| 2026-05-04 18:24 | 38.51849 | -9.17562 | 1974 ft | 111 kts | 321° |
| 2026-05-04 18:25 | 38.52521 | -9.18024 | 2003 ft | 110 kts | 332° |
| 2026-05-04 18:25 | 38.53239 | -9.18404 | 2007 ft | 111 kts | 335° |
| 2026-05-04 18:25 | 38.53954 | -9.18773 | 2004 ft | 111 kts | 334° |
| 2026-05-04 18:25 | 38.54665 | -9.19148 | 2002 ft | 110 kts | 334° |
| 2026-05-04 18:26 | 38.55370 | -9.19525 | 1999 ft | 109 kts | 334° |
| 2026-05-04 18:26 | 38.56075 | -9.19905 | 1995 ft | 109 kts | 334° |
| 2026-05-04 18:26 | 38.56767 | -9.20278 | 1998 ft | 109 kts | 334° |
| 2026-05-04 18:26 | 38.57469 | -9.20658 | 2000 ft | 108 kts | 335° |
| 2026-05-04 18:27 | 38.58162 | -9.21033 | 2001 ft | 109 kts | 334° |
| 2026-05-04 18:27 | 38.58870 | -9.21417 | 1998 ft | 110 kts | 335° |
| 2026-05-04 18:27 | 38.59576 | -9.21801 | 1998 ft | 110 kts | 334° |
| 2026-05-04 18:27 | 38.60281 | -9.22185 | 1996 ft | 110 kts | 334° |
| 2026-05-04 18:28 | 38.60982 | -9.22566 | 1998 ft | 110 kts | 335° |
| 2026-05-04 18:28 | 38.61686 | -9.22949 | 1999 ft | 110 kts | 334° |
| 2026-05-04 18:28 | 38.62400 | -9.23339 | 1935 ft | 113 kts | 332° |
| 2026-05-04 18:28 | 38.63110 | -9.23748 | 1744 ft | 112 kts | 332° |
| 2026-05-04 18:29 | 38.63813 | -9.24168 | 1562 ft | 110 kts | 332° |
| 2026-05-04 18:29 | 38.64477 | -9.24568 | 1502 ft | 100 kts | 332° |
| 2026-05-04 18:29 | 38.65127 | -9.24845 | 1483 ft | 97 kts | 344° |
| 2026-05-04 18:29 | 38.65792 | -9.24886 | 1497 ft | 94 kts | 354° |
| 2026-05-04 18:30 | 38.67101 | -9.24971 | 1507 ft | 94 kts | 346° |
| 2026-05-04 18:30 | 38.67741 | -9.25131 | 1509 ft | 93 kts | 343° |
| 2026-05-04 18:30 | 38.68375 | -9.25306 | 1507 ft | 94 kts | 342° |
| 2026-05-04 18:31 | 38.69022 | -9.25479 | 1504 ft | 93 kts | 343° |
| 2026-05-04 18:31 | 38.69658 | -9.25643 | 1503 ft | 94 kts | 343° |
| 2026-05-04 18:31 | 38.70300 | -9.25804 | 1496 ft | 94 kts | 344° |
| 2026-05-04 18:31 | 38.70942 | -9.25964 | 1498 ft | 93 kts | 342° |
| 2026-05-04 18:32 | 38.71570 | -9.26119 | 1494 ft | 92 kts | 343° |
| 2026-05-04 18:32 | 38.72204 | -9.26274 | 1502 ft | 92 kts | 342° |
| 2026-05-04 18:32 | 38.72840 | -9.26432 | 1498 ft | 93 kts | 342° |
| 2026-05-04 18:32 | 38.73475 | -9.26590 | 1500 ft | 93 kts | 342° |
| 2026-05-04 18:33 | 38.74103 | -9.26750 | 1481 ft | 90 kts | 343° |
| 2026-05-04 18:33 | 38.74707 | -9.26903 | 1499 ft | 86 kts | 342° |
| 2026-05-04 18:33 | 38.75304 | -9.27053 | 1490 ft | 87 kts | 343° |
| 2026-05-04 18:33 | 38.75898 | -9.27193 | 1483 ft | 86 kts | 348° |
| 2026-05-04 18:34 | 38.76490 | -9.27002 | 1460 ft | 93 kts | 20° |
| 2026-05-04 18:34 | 38.76936 | -9.26358 | 1490 ft | 98 kts | 45° |
| 2026-05-04 18:34 | 38.77252 | -9.25575 | 1505 ft | 101 kts | 52° |
| 2026-05-04 18:34 | 38.77529 | -9.24738 | 1496 ft | 101 kts | 58° |
| 2026-05-04 18:35 | 38.77809 | -9.23905 | 1493 ft | 101 kts | 54° |
| 2026-05-04 18:35 | 38.78096 | -9.23125 | 1489 ft | 95 kts | 53° |
| 2026-05-04 18:35 | 38.78380 | -9.22378 | 1481 ft | 88 kts | 50° |
| 2026-05-04 18:35 | 38.78645 | -9.21698 | 1488 ft | 86 kts | 50° |
| 2026-05-04 18:36 | 38.78910 | -9.21030 | 1495 ft | 82 kts | 51° |
| 2026-05-04 18:36 | 38.79173 | -9.20375 | 1492 ft | 82 kts | 49° |
| 2026-05-04 18:36 | 38.79438 | -9.19723 | 1498 ft | 84 kts | 49° |
| 2026-05-04 18:36 | 38.79705 | -9.19067 | 1497 ft | 81 kts | 48° |
| 2026-05-04 18:37 | 38.79964 | -9.18426 | 1497 ft | 80 kts | 49° |
| 2026-05-04 18:37 | 38.80223 | -9.17794 | 1503 ft | 78 kts | 45° |
| 2026-05-04 18:37 | 38.80447 | -9.17156 | 1420 ft | 86 kts | 77° |
| 2026-05-04 18:37 | 38.80275 | -9.16404 | 1285 ft | 92 kts | 110° |
| 2026-05-04 18:38 | 38.79870 | -9.15715 | 1031 ft | 101 kts | 128° |
| 2026-05-04 18:38 | 38.79435 | -9.15101 | 983 ft | 81 kts | 135° |
| 2026-05-04 18:38 | 38.79059 | -9.14599 | 826 ft | 74 kts | 141° |
| 2026-05-04 18:38 | 38.78731 | -9.14186 | 669 ft | 59 kts | 143° |
| 2026-05-04 18:39 | 38.78487 | -9.13874 | 531 ft | 41 kts | 151° |
| 2026-05-04 18:39 | 38.78352 | -9.13641 | 442 ft | 20 kts | 195° |
| 2026-05-04 18:39 | 38.78203 | -9.13622 | 399 ft | 20 kts | 176° |
| 2026-05-04 18:39 | 38.78090 | -9.13588 | 395 ft | 15 kts | 174° |
| 2026-05-04 18:40 | 38.77994 | -9.13560 | 388 ft | 8 kts | 178° |
| 2026-05-04 18:40 | 38.77979 | -9.13556 | 393 ft | 0 kts | 172° |
| 2026-05-04 18:40 | 38.77973 | -9.13557 | 393 ft | 1 kts | 173° |
| 2026-05-04 18:40 | 38.77967 | -9.13560 | 391 ft | 2 kts | 168° |
| 2026-05-04 18:41 | 38.77966 | -9.13559 | 391 ft | 1 kts | 170° |
| 2026-05-04 18:41 | 38.77954 | -9.13559 | 398 ft | 8 kts | 169° |
| 2026-05-04 18:41 | 38.77879 | -9.13542 | 396 ft | 10 kts | 136° |
| 2026-05-04 18:41 | 38.77887 | -9.13490 | 399 ft | 8 kts | 26° |
| 2026-05-04 18:42 | 38.77927 | -9.13451 | 395 ft | 10 kts | 77° |
| 2026-05-04 18:42 | 38.77907 | -9.13384 | 395 ft | 9 kts | 172° |
| 2026-05-04 18:42 | 38.77836 | -9.13366 | 394 ft | 9 kts | 166° |
| 2026-05-04 18:42 | 38.77800 | -9.13357 | 391 ft | 3 kts | 138° |
| 2026-05-04 18:43 | 38.77759 | -9.13346 | 391 ft | 6 kts | 146° |
| 2026-05-04 18:43 | 38.77731 | -9.13277 | 391 ft | 10 kts | 72° |
| 2026-05-04 18:43 | 38.77753 | -9.13207 | 392 ft | 6 kts | 10° |
| 2026-05-04 18:43 | 38.77813 | -9.13215 | 391 ft | 9 kts | 352° |
| 2026-05-04 18:44 | 38.77866 | -9.13197 | 384 ft | 4 kts | 25° |
| 2026-05-04 18:44 | 38.77885 | -9.13190 | 379 ft | 2 kts | 23° |
| 2026-05-04 18:44 | 38.77886 | -9.13191 | 377 ft | 0 kts | 19° |